< < Back
Terminal Aerodrome Forecast


Current Version              Previous Versions:   1  2  3  4  5  6  7  8  9  

Terminal Aerodrome Forecast

518
FTUS42 KILM 280500
TAFFLO
TAF
KFLO 280520Z 2806/2906 33006KT P6SM SKC
     FM281400 35009KT P6SM SKC
     FM282300 00000KT P6SM SKC=

Latest METAR

957
SAUS70 KWBC 281700 RRO
MTRFLO
METAR KFLO 281653Z 33008KT 10SM CLR 07/M07 A3037 RMK AO2 SLP282
T00671067


USA.gov is the U.S. government's official web portal to all federal, state and local government web resources and services.